sensor_id;sensor_type;location;lat;lon;timestamp;P1;durP1;ratioP1;P2;durP2;ratioP2
52033;SDS011;38045;52.988;6.536;2022-12-15T00:01:19;32.92;;;16.55;;
52033;SDS011;38045;52.988;6.536;2022-12-15T00:04:03;33.70;;;21.50;;
52033;SDS011;38045;52.988;6.536;2022-12-15T00:06:48;26.52;;;15.60;;
52033;SDS011;38045;52.988;6.536;2022-12-15T00:09:32;32.30;;;18.23;;
52033;SDS011;38045;52.988;6.536;2022-12-15T00:12:17;25.33;;;19.17;;
52033;SDS011;38045;52.988;6.536;2022-12-15T00:15:01;28.52;;;15.75;;
52033;SDS011;38045;52.988;6.536;2022-12-15T00:17:45;23.10;;;16.83;;
52033;SDS011;38045;52.988;6.536;2022-12-15T00:20:30;30.67;;;19.83;;
52033;SDS011;38045;52.988;6.536;2022-12-15T00:23:14;30.83;;;18.83;;
52033;SDS011;38045;52.988;6.536;2022-12-15T00:25:59;26.27;;;16.27;;
52033;SDS011;38045;52.988;6.536;2022-12-15T00:28:44;28.10;;;19.30;;
52033;SDS011;38045;52.988;6.536;2022-12-15T00:31:28;27.98;;;14.80;;
52033;SDS011;38045;52.988;6.536;2022-12-15T00:34:12;26.40;;;16.85;;
52033;SDS011;38045;52.988;6.536;2022-12-15T00:36:57;24.25;;;16.60;;
52033;SDS011;38045;52.988;6.536;2022-12-15T00:39:41;24.10;;;17.30;;
52033;SDS011;38045;52.988;6.536;2022-12-15T00:42:07;27.42;;;19.10;;
52033;SDS011;38045;52.988;6.536;2022-12-15T00:44:33;26.80;;;15.63;;
52033;SDS011;38045;52.988;6.536;2022-12-15T00:47:01;26.15;;;16.65;;
52033;SDS011;38045;52.988;6.536;2022-12-15T00:49:27;21.92;;;14.88;;
52033;SDS011;38045;52.988;6.536;2022-12-15T00:52:13;25.48;;;16.48;;
52033;SDS011;38045;52.988;6.536;2022-12-15T00:54:58;29.15;;;17.77;;
52033;SDS011;38045;52.988;6.536;2022-12-15T00:57:42;24.33;;;17.73;;
52033;SDS011;38045;52.988;6.536;2022-12-15T01:00:26;21.05;;;13.50;;
52033;SDS011;38045;52.988;6.536;2022-12-15T01:03:28;30.75;;;16.88;;
52033;SDS011;38045;52.988;6.536;2022-12-15T01:06:14;25.25;;;15.23;;
52033;SDS011;38045;52.988;6.536;2022-12-15T01:08:59;25.80;;;17.33;;
52033;SDS011;38045;52.988;6.536;2022-12-15T01:11:43;21.88;;;15.75;;
52033;SDS011;38045;52.988;6.536;2022-12-15T01:14:27;26.42;;;16.45;;
52033;SDS011;38045;52.988;6.536;2022-12-15T01:17:13;22.95;;;16.00;;
52033;SDS011;38045;52.988;6.536;2022-12-15T01:19:57;25.88;;;15.63;;
52033;SDS011;38045;52.988;6.536;2022-12-15T01:22:41;25.17;;;16.27;;
52033;SDS011;38045;52.988;6.536;2022-12-15T01:25:08;20.42;;;12.88;;
52033;SDS011;38045;52.988;6.536;2022-12-15T01:27:34;20.63;;;13.20;;
52033;SDS011;38045;52.988;6.536;2022-12-15T01:30:00;24.98;;;13.73;;
52033;SDS011;38045;52.988;6.536;2022-12-15T01:32:26;19.70;;;11.90;;
52033;SDS011;38045;52.988;6.536;2022-12-15T01:34:52;20.98;;;13.75;;
52033;SDS011;38045;52.988;6.536;2022-12-15T01:37:18;23.05;;;13.07;;
52033;SDS011;38045;52.988;6.536;2022-12-15T01:39:44;22.92;;;14.50;;
52033;SDS011;38045;52.988;6.536;2022-12-15T01:42:28;21.35;;;14.65;;
52033;SDS011;38045;52.988;6.536;2022-12-15T01:45:17;19.85;;;14.60;;
52033;SDS011;38045;52.988;6.536;2022-12-15T01:47:52;18.38;;;13.75;;
52033;SDS011;38045;52.988;6.536;2022-12-15T01:50:38;19.42;;;12.55;;
52033;SDS011;38045;52.988;6.536;2022-12-15T01:53:08;26.00;;;12.65;;
52033;SDS011;38045;52.988;6.536;2022-12-15T01:55:35;22.45;;;14.13;;
52033;SDS011;38045;52.988;6.536;2022-12-15T01:58:03;19.58;;;12.88;;
52033;SDS011;38045;52.988;6.536;2022-12-15T02:00:30;25.20;;;14.57;;
52033;SDS011;38045;52.988;6.536;2022-12-15T02:02:56;21.55;;;15.00;;
52033;SDS011;38045;52.988;6.536;2022-12-15T02:05:24;24.35;;;14.88;;
52033;SDS011;38045;52.988;6.536;2022-12-15T02:07:51;20.15;;;14.82;;
52033;SDS011;38045;52.988;6.536;2022-12-15T02:10:16;21.05;;;14.60;;
52033;SDS011;38045;52.988;6.536;2022-12-15T02:12:49;23.38;;;15.30;;
52033;SDS011;38045;52.988;6.536;2022-12-15T02:36:55;19.20;;;13.30;;
52033;SDS011;38045;52.988;6.536;2022-12-15T02:39:23;27.08;;;18.35;;
52033;SDS011;38045;52.988;6.536;2022-12-15T02:41:49;15.90;;;12.73;;
52033;SDS011;38045;52.988;6.536;2022-12-15T02:44:19;21.35;;;14.60;;
52033;SDS011;38045;52.988;6.536;2022-12-15T02:47:12;20.70;;;14.27;;
52033;SDS011;38045;52.988;6.536;2022-12-15T02:52:30;17.88;;;11.82;;
52033;SDS011;38045;52.988;6.536;2022-12-15T03:00:45;19.52;;;11.32;;
52033;SDS011;38045;52.988;6.536;2022-12-15T03:03:15;16.38;;;8.75;;
52033;SDS011;38045;52.988;6.536;2022-12-15T03:05:45;20.17;;;15.48;;
52033;SDS011;38045;52.988;6.536;2022-12-15T03:08:12;17.67;;;14.45;;
52033;SDS011;38045;52.988;6.536;2022-12-15T03:10:37;21.80;;;11.60;;
52033;SDS011;38045;52.988;6.536;2022-12-15T03:13:03;18.80;;;11.65;;
52033;SDS011;38045;52.988;6.536;2022-12-15T03:15:29;22.30;;;12.60;;
52033;SDS011;38045;52.988;6.536;2022-12-15T03:17:55;18.00;;;12.32;;
52033;SDS011;38045;52.988;6.536;2022-12-15T03:20:21;18.30;;;12.82;;
52033;SDS011;38045;52.988;6.536;2022-12-15T03:22:46;24.33;;;15.02;;
52033;SDS011;38045;52.988;6.536;2022-12-15T03:25:12;19.00;;;14.15;;
52033;SDS011;38045;52.988;6.536;2022-12-15T03:27:37;22.58;;;14.30;;
52033;SDS011;38045;52.988;6.536;2022-12-15T03:30:03;19.95;;;11.20;;
52033;SDS011;38045;52.988;6.536;2022-12-15T03:32:30;22.85;;;12.80;;
52033;SDS011;38045;52.988;6.536;2022-12-15T03:34:55;18.00;;;11.30;;
52033;SDS011;38045;52.988;6.536;2022-12-15T03:37:21;16.40;;;11.77;;
52033;SDS011;38045;52.988;6.536;2022-12-15T03:39:47;24.42;;;13.65;;
52033;SDS011;38045;52.988;6.536;2022-12-15T03:42:12;18.83;;;12.38;;
52033;SDS011;38045;52.988;6.536;2022-12-15T03:44:38;18.00;;;12.30;;
52033;SDS011;38045;52.988;6.536;2022-12-15T03:47:03;15.85;;;11.98;;
52033;SDS011;38045;52.988;6.536;2022-12-15T03:49:29;14.40;;;11.45;;
52033;SDS011;38045;52.988;6.536;2022-12-15T03:51:55;11.00;;;9.23;;
52033;SDS011;38045;52.988;6.536;2022-12-15T03:54:20;16.02;;;9.98;;
52033;SDS011;38045;52.988;6.536;2022-12-15T03:56:46;18.00;;;11.32;;
52033;SDS011;38045;52.988;6.536;2022-12-15T03:59:12;17.58;;;11.63;;
52033;SDS011;38045;52.988;6.536;2022-12-15T04:01:37;18.70;;;11.60;;
52033;SDS011;38045;52.988;6.536;2022-12-15T04:04:10;20.60;;;12.82;;
52033;SDS011;38045;52.988;6.536;2022-12-15T04:06:36;19.90;;;11.70;;
52033;SDS011;38045;52.988;6.536;2022-12-15T04:09:02;22.35;;;14.63;;
52033;SDS011;38045;52.988;6.536;2022-12-15T04:11:27;18.67;;;13.20;;
52033;SDS011;38045;52.988;6.536;2022-12-15T04:13:53;15.57;;;11.73;;
52033;SDS011;38045;52.988;6.536;2022-12-15T04:16:18;19.15;;;11.73;;
52033;SDS011;38045;52.988;6.536;2022-12-15T04:18:44;13.48;;;9.82;;
52033;SDS011;38045;52.988;6.536;2022-12-15T04:21:10;10.05;;;6.43;;
52033;SDS011;38045;52.988;6.536;2022-12-15T04:23:35;18.00;;;12.80;;
52033;SDS011;38045;52.988;6.536;2022-12-15T04:26:01;15.38;;;9.48;;
52033;SDS011;38045;52.988;6.536;2022-12-15T04:28:45;19.48;;;12.93;;
52033;SDS011;38045;52.988;6.536;2022-12-15T04:31:30;19.00;;;13.55;;
52033;SDS011;38045;52.988;6.536;2022-12-15T04:34:17;12.68;;;8.98;;
52033;SDS011;38045;52.988;6.536;2022-12-15T04:37:04;18.05;;;11.93;;
52033;SDS011;38045;52.988;6.536;2022-12-15T04:39:51;11.20;;;7.03;;
52033;SDS011;38045;52.988;6.536;2022-12-15T04:42:39;16.50;;;10.55;;
52033;SDS011;38045;52.988;6.536;2022-12-15T04:45:29;16.17;;;10.77;;
52033;SDS011;38045;52.988;6.536;2022-12-15T04:48:13;23.92;;;13.82;;
52033;SDS011;38045;52.988;6.536;2022-12-15T04:50:58;18.83;;;11.80;;
52033;SDS011;38045;52.988;6.536;2022-12-15T04:53:42;30.17;;;16.27;;
52033;SDS011;38045;52.988;6.536;2022-12-15T04:56:27;18.75;;;9.85;;
52033;SDS011;38045;52.988;6.536;2022-12-15T04:59:11;18.92;;;12.48;;
52033;SDS011;38045;52.988;6.536;2022-12-15T05:01:55;13.93;;;10.23;;
52033;SDS011;38045;52.988;6.536;2022-12-15T05:04:40;15.95;;;10.23;;
52033;SDS011;38045;52.988;6.536;2022-12-15T05:07:24;18.83;;;13.02;;
52033;SDS011;38045;52.988;6.536;2022-12-15T05:10:09;21.17;;;12.77;;
52033;SDS011;38045;52.988;6.536;2022-12-15T05:12:54;14.65;;;12.25;;
52033;SDS011;38045;52.988;6.536;2022-12-15T05:15:38;14.77;;;12.48;;
52033;SDS011;38045;52.988;6.536;2022-12-15T05:18:22;21.42;;;12.45;;
52033;SDS011;38045;52.988;6.536;2022-12-15T05:21:07;16.63;;;10.60;;
52033;SDS011;38045;52.988;6.536;2022-12-15T05:23:51;13.25;;;10.65;;
52033;SDS011;38045;52.988;6.536;2022-12-15T05:26:35;17.58;;;11.05;;
52033;SDS011;38045;52.988;6.536;2022-12-15T05:29:20;15.25;;;10.57;;
52033;SDS011;38045;52.988;6.536;2022-12-15T05:32:04;12.43;;;10.20;;
52033;SDS011;38045;52.988;6.536;2022-12-15T05:34:31;12.13;;;6.60;;
52033;SDS011;38045;52.988;6.536;2022-12-15T05:36:59;17.58;;;8.18;;
52033;SDS011;38045;52.988;6.536;2022-12-15T05:39:27;14.40;;;11.07;;
52033;SDS011;38045;52.988;6.536;2022-12-15T05:41:53;13.63;;;8.73;;
52033;SDS011;38045;52.988;6.536;2022-12-15T05:44:20;11.90;;;10.32;;
52033;SDS011;38045;52.988;6.536;2022-12-15T05:46:46;14.98;;;10.75;;
52033;SDS011;38045;52.988;6.536;2022-12-15T05:49:13;13.13;;;10.05;;
52033;SDS011;38045;52.988;6.536;2022-12-15T05:51:40;12.10;;;10.15;;
52033;SDS011;38045;52.988;6.536;2022-12-15T05:54:07;13.68;;;8.27;;
52033;SDS011;38045;52.988;6.536;2022-12-15T05:56:33;13.18;;;9.25;;
52033;SDS011;38045;52.988;6.536;2022-12-15T05:58:59;16.63;;;11.32;;
52033;SDS011;38045;52.988;6.536;2022-12-15T06:01:25;8.93;;;7.97;;
52033;SDS011;38045;52.988;6.536;2022-12-15T06:03:51;21.13;;;9.57;;
52033;SDS011;38045;52.988;6.536;2022-12-15T06:06:17;15.70;;;10.07;;
52033;SDS011;38045;52.988;6.536;2022-12-15T06:08:43;14.63;;;8.55;;
52033;SDS011;38045;52.988;6.536;2022-12-15T06:11:09;15.38;;;9.70;;
52033;SDS011;38045;52.988;6.536;2022-12-15T06:13:36;20.13;;;10.50;;
52033;SDS011;38045;52.988;6.536;2022-12-15T06:16:03;12.73;;;8.45;;
52033;SDS011;38045;52.988;6.536;2022-12-15T06:18:32;16.83;;;9.70;;
52033;SDS011;38045;52.988;6.536;2022-12-15T06:21:06;12.13;;;7.90;;
52033;SDS011;38045;52.988;6.536;2022-12-15T06:23:36;13.30;;;8.82;;
52033;SDS011;38045;52.988;6.536;2022-12-15T06:26:22;16.88;;;11.90;;
52033;SDS011;38045;52.988;6.536;2022-12-15T06:28:53;12.43;;;9.55;;
52033;SDS011;38045;52.988;6.536;2022-12-15T06:31:20;12.88;;;7.85;;
52033;SDS011;38045;52.988;6.536;2022-12-15T06:33:46;14.80;;;8.07;;
52033;SDS011;38045;52.988;6.536;2022-12-15T06:36:13;15.63;;;10.75;;
52033;SDS011;38045;52.988;6.536;2022-12-15T06:38:41;10.30;;;6.80;;
52033;SDS011;38045;52.988;6.536;2022-12-15T06:41:07;5.80;;;4.55;;
52033;SDS011;38045;52.988;6.536;2022-12-15T06:43:34;9.50;;;6.75;;
52033;SDS011;38045;52.988;6.536;2022-12-15T06:46:00;12.02;;;6.93;;
52033;SDS011;38045;52.988;6.536;2022-12-15T06:48:26;13.40;;;7.07;;
52033;SDS011;38045;52.988;6.536;2022-12-15T06:50:52;11.40;;;8.40;;
52033;SDS011;38045;52.988;6.536;2022-12-15T06:53:19;13.98;;;8.85;;
52033;SDS011;38045;52.988;6.536;2022-12-15T06:55:47;13.50;;;8.98;;
52033;SDS011;38045;52.988;6.536;2022-12-15T06:58:13;18.63;;;11.15;;
52033;SDS011;38045;52.988;6.536;2022-12-15T07:00:39;7.85;;;6.32;;
52033;SDS011;38045;52.988;6.536;2022-12-15T07:03:07;10.77;;;8.30;;
52033;SDS011;38045;52.988;6.536;2022-12-15T07:05:36;14.45;;;7.85;;
52033;SDS011;38045;52.988;6.536;2022-12-15T07:08:02;8.32;;;5.45;;
52033;SDS011;38045;52.988;6.536;2022-12-15T07:10:27;10.90;;;7.35;;
52033;SDS011;38045;52.988;6.536;2022-12-15T07:12:55;10.30;;;6.20;;
52033;SDS011;38045;52.988;6.536;2022-12-15T07:15:21;16.75;;;9.85;;
52033;SDS011;38045;52.988;6.536;2022-12-15T07:17:47;16.48;;;11.75;;
52033;SDS011;38045;52.988;6.536;2022-12-15T07:20:13;17.70;;;10.85;;
52033;SDS011;38045;52.988;6.536;2022-12-15T07:22:39;11.82;;;10.32;;
52033;SDS011;38045;52.988;6.536;2022-12-15T07:25:05;22.63;;;10.70;;
52033;SDS011;38045;52.988;6.536;2022-12-15T07:27:31;12.10;;;8.07;;
52033;SDS011;38045;52.988;6.536;2022-12-15T07:29:56;20.88;;;10.35;;
52033;SDS011;38045;52.988;6.536;2022-12-15T07:32:22;20.48;;;10.63;;
52033;SDS011;38045;52.988;6.536;2022-12-15T07:34:48;6.53;;;5.45;;
52033;SDS011;38045;52.988;6.536;2022-12-15T07:37:13;20.27;;;11.30;;
52033;SDS011;38045;52.988;6.536;2022-12-15T07:39:40;17.17;;;10.15;;
52033;SDS011;38045;52.988;6.536;2022-12-15T07:42:05;16.55;;;10.48;;
52033;SDS011;38045;52.988;6.536;2022-12-15T07:44:31;12.95;;;7.38;;
52033;SDS011;38045;52.988;6.536;2022-12-15T07:46:56;18.05;;;11.23;;
52033;SDS011;38045;52.988;6.536;2022-12-15T07:49:22;15.25;;;9.90;;
52033;SDS011;38045;52.988;6.536;2022-12-15T07:51:48;20.00;;;12.05;;
52033;SDS011;38045;52.988;6.536;2022-12-15T07:54:14;15.15;;;10.20;;
52033;SDS011;38045;52.988;6.536;2022-12-15T07:56:40;12.10;;;7.50;;
52033;SDS011;38045;52.988;6.536;2022-12-15T07:59:05;10.95;;;6.07;;
52033;SDS011;38045;52.988;6.536;2022-12-15T08:01:32;8.73;;;7.15;;
52033;SDS011;38045;52.988;6.536;2022-12-15T08:03:59;13.60;;;9.05;;
52033;SDS011;38045;52.988;6.536;2022-12-15T08:06:24;16.95;;;10.52;;
52033;SDS011;38045;52.988;6.536;2022-12-15T08:08:50;10.50;;;8.65;;
52033;SDS011;38045;52.988;6.536;2022-12-15T08:11:16;12.00;;;7.85;;
52033;SDS011;38045;52.988;6.536;2022-12-15T08:16:10;12.35;;;8.57;;
52033;SDS011;38045;52.988;6.536;2022-12-15T08:18:36;13.70;;;8.02;;
52033;SDS011;38045;52.988;6.536;2022-12-15T08:21:03;14.90;;;11.45;;
52033;SDS011;38045;52.988;6.536;2022-12-15T08:23:30;16.08;;;8.85;;
52033;SDS011;38045;52.988;6.536;2022-12-15T08:28:30;14.18;;;10.38;;
52033;SDS011;38045;52.988;6.536;2022-12-15T08:31:06;10.70;;;7.25;;
52033;SDS011;38045;52.988;6.536;2022-12-15T08:33:34;13.27;;;8.13;;
52033;SDS011;38045;52.988;6.536;2022-12-15T08:36:00;13.55;;;7.78;;
52033;SDS011;38045;52.988;6.536;2022-12-15T08:38:29;15.07;;;7.78;;
52033;SDS011;38045;52.988;6.536;2022-12-15T08:40:56;11.32;;;9.25;;
52033;SDS011;38045;52.988;6.536;2022-12-15T08:43:22;14.73;;;8.43;;
52033;SDS011;38045;52.988;6.536;2022-12-15T08:45:48;13.60;;;9.63;;
52033;SDS011;38045;52.988;6.536;2022-12-15T08:48:13;14.05;;;8.52;;
52033;SDS011;38045;52.988;6.536;2022-12-15T08:50:43;12.65;;;9.52;;
52033;SDS011;38045;52.988;6.536;2022-12-15T08:53:09;18.20;;;11.60;;
52033;SDS011;38045;52.988;6.536;2022-12-15T08:55:36;14.73;;;9.15;;
52033;SDS011;38045;52.988;6.536;2022-12-15T08:58:02;17.50;;;10.68;;
52033;SDS011;38045;52.988;6.536;2022-12-15T09:00:27;12.48;;;7.30;;
52033;SDS011;38045;52.988;6.536;2022-12-15T09:02:53;10.07;;;6.97;;
52033;SDS011;38045;52.988;6.536;2022-12-15T09:05:18;12.77;;;9.57;;
52033;SDS011;38045;52.988;6.536;2022-12-15T09:07:44;22.67;;;9.98;;
52033;SDS011;38045;52.988;6.536;2022-12-15T09:10:10;14.13;;;9.32;;
52033;SDS011;38045;52.988;6.536;2022-12-15T09:12:35;7.07;;;5.60;;
52033;SDS011;38045;52.988;6.536;2022-12-15T09:15:01;12.95;;;10.93;;
52033;SDS011;38045;52.988;6.536;2022-12-15T09:17:26;11.98;;;9.20;;
52033;SDS011;38045;52.988;6.536;2022-12-15T09:19:52;26.60;;;8.73;;
52033;SDS011;38045;52.988;6.536;2022-12-15T09:22:18;12.93;;;11.25;;
52033;SDS011;38045;52.988;6.536;2022-12-15T09:24:43;12.00;;;10.07;;
52033;SDS011;38045;52.988;6.536;2022-12-15T09:27:10;15.98;;;12.10;;
52033;SDS011;38045;52.988;6.536;2022-12-15T09:29:36;15.93;;;9.43;;
52033;SDS011;38045;52.988;6.536;2022-12-15T09:32:01;13.48;;;9.45;;
52033;SDS011;38045;52.988;6.536;2022-12-15T09:34:28;19.15;;;10.40;;
52033;SDS011;38045;52.988;6.536;2022-12-15T09:36:53;11.35;;;8.25;;
52033;SDS011;38045;52.988;6.536;2022-12-15T09:39:20;16.15;;;11.25;;
52033;SDS011;38045;52.988;6.536;2022-12-15T09:41:53;16.05;;;8.82;;
52033;SDS011;38045;52.988;6.536;2022-12-15T09:44:21;14.40;;;8.07;;
52033;SDS011;38045;52.988;6.536;2022-12-15T09:46:53;13.02;;;8.38;;
52033;SDS011;38045;52.988;6.536;2022-12-15T09:52:05;15.57;;;10.85;;
52033;SDS011;38045;52.988;6.536;2022-12-15T09:54:36;17.05;;;9.48;;
52033;SDS011;38045;52.988;6.536;2022-12-15T10:08:00;11.25;;;9.20;;
52033;SDS011;38045;52.988;6.536;2022-12-15T10:12:57;11.48;;;9.48;;
52033;SDS011;38045;52.988;6.536;2022-12-15T10:15:30;18.38;;;12.93;;
52033;SDS011;38045;52.988;6.536;2022-12-15T10:18:25;12.38;;;9.70;;
52033;SDS011;38045;52.988;6.536;2022-12-15T10:20:57;13.13;;;7.85;;
52033;SDS011;38045;52.988;6.536;2022-12-15T10:23:25;11.15;;;9.00;;
52033;SDS011;38045;52.988;6.536;2022-12-15T10:25:57;21.92;;;8.98;;
52033;SDS011;38045;52.988;6.536;2022-12-15T10:31:21;14.60;;;9.15;;
52033;SDS011;38045;52.988;6.536;2022-12-15T10:33:53;8.38;;;6.78;;
52033;SDS011;38045;52.988;6.536;2022-12-15T10:36:25;15.35;;;11.32;;
52033;SDS011;38045;52.988;6.536;2022-12-15T10:38:50;18.60;;;12.75;;
52033;SDS011;38045;52.988;6.536;2022-12-15T10:41:18;10.70;;;8.23;;
52033;SDS011;38045;52.988;6.536;2022-12-15T10:43:46;11.57;;;8.13;;
52033;SDS011;38045;52.988;6.536;2022-12-15T10:49:29;8.27;;;7.28;;
52033;SDS011;38045;52.988;6.536;2022-12-15T10:51:34;11.55;;;9.57;;
52033;SDS011;38045;52.988;6.536;2022-12-15T10:56:33;9.88;;;7.97;;
52033;SDS011;38045;52.988;6.536;2022-12-15T11:01:50;12.55;;;8.50;;
52033;SDS011;38045;52.988;6.536;2022-12-15T11:04:23;10.63;;;5.88;;
52033;SDS011;38045;52.988;6.536;2022-12-15T11:06:57;11.23;;;7.72;;
52033;SDS011;38045;52.988;6.536;2022-12-15T11:09:33;10.70;;;8.75;;
52033;SDS011;38045;52.988;6.536;2022-12-15T11:12:00;25.20;;;11.75;;
52033;SDS011;38045;52.988;6.536;2022-12-15T11:14:58;12.70;;;8.13;;
52033;SDS011;38045;52.988;6.536;2022-12-15T11:17:24;14.93;;;7.20;;
52033;SDS011;38045;52.988;6.536;2022-12-15T11:22:26;11.05;;;7.82;;
52033;SDS011;38045;52.988;6.536;2022-12-15T11:27:44;9.63;;;8.45;;
52033;SDS011;38045;52.988;6.536;2022-12-15T11:30:15;8.15;;;7.32;;
52033;SDS011;38045;52.988;6.536;2022-12-15T11:32:43;13.02;;;6.55;;
52033;SDS011;38045;52.988;6.536;2022-12-15T11:35:13;9.82;;;8.25;;
52033;SDS011;38045;52.988;6.536;2022-12-15T11:37:42;9.18;;;7.13;;
52033;SDS011;38045;52.988;6.536;2022-12-15T11:47:47;7.97;;;7.13;;
52033;SDS011;38045;52.988;6.536;2022-12-15T11:50:37;8.43;;;6.43;;
52033;SDS011;38045;52.988;6.536;2022-12-15T12:04:42;11.75;;;8.30;;
52033;SDS011;38045;52.988;6.536;2022-12-15T12:07:45;15.13;;;7.05;;
52033;SDS011;38045;52.988;6.536;2022-12-15T12:10:25;11.48;;;7.72;;
52033;SDS011;38045;52.988;6.536;2022-12-15T12:13:21;8.93;;;5.38;;
52033;SDS011;38045;52.988;6.536;2022-12-15T12:18:44;8.50;;;4.47;;
52033;SDS011;38045;52.988;6.536;2022-12-15T12:21:22;11.23;;;9.43;;
52033;SDS011;38045;52.988;6.536;2022-12-15T12:23:52;8.48;;;5.72;;
52033;SDS011;38045;52.988;6.536;2022-12-15T12:29:11;10.80;;;8.07;;
52033;SDS011;38045;52.988;6.536;2022-12-15T12:34:31;17.23;;;9.82;;
52033;SDS011;38045;52.988;6.536;2022-12-15T12:37:15;11.10;;;8.77;;
52033;SDS011;38045;52.988;6.536;2022-12-15T12:39:44;7.32;;;6.00;;
52033;SDS011;38045;52.988;6.536;2022-12-15T12:42:13;9.65;;;5.30;;
52033;SDS011;38045;52.988;6.536;2022-12-15T12:44:45;7.63;;;6.85;;
52033;SDS011;38045;52.988;6.536;2022-12-15T12:47:21;17.20;;;7.30;;
52033;SDS011;38045;52.988;6.536;2022-12-15T12:49:52;8.93;;;6.10;;
52033;SDS011;38045;52.988;6.536;2022-12-15T12:52:24;13.23;;;6.68;;
52033;SDS011;38045;52.988;6.536;2022-12-15T12:54:56;12.38;;;7.47;;
52033;SDS011;38045;52.988;6.536;2022-12-15T12:57:44;8.95;;;6.65;;
52033;SDS011;38045;52.988;6.536;2022-12-15T13:02:39;6.07;;;4.53;;
52033;SDS011;38045;52.988;6.536;2022-12-15T13:10:34;6.63;;;4.25;;
52033;SDS011;38045;52.988;6.536;2022-12-15T13:15:57;6.32;;;5.55;;
52033;SDS011;38045;52.988;6.536;2022-12-15T13:24:44;13.52;;;6.88;;
52033;SDS011;38045;52.988;6.536;2022-12-15T13:29:52;14.13;;;9.32;;
52033;SDS011;38045;52.988;6.536;2022-12-15T13:37:52;11.05;;;6.80;;
52033;SDS011;38045;52.988;6.536;2022-12-15T13:40:30;12.57;;;6.38;;
52033;SDS011;38045;52.988;6.536;2022-12-15T13:45:29;9.60;;;7.30;;
52033;SDS011;38045;52.988;6.536;2022-12-15T13:47:57;8.93;;;6.05;;
52033;SDS011;38045;52.988;6.536;2022-12-15T13:50:35;5.10;;;4.60;;
52033;SDS011;38045;52.988;6.536;2022-12-15T13:53:10;13.98;;;6.68;;
52033;SDS011;38045;52.988;6.536;2022-12-15T13:55:49;10.05;;;7.95;;
52033;SDS011;38045;52.988;6.536;2022-12-15T14:01:01;9.75;;;5.47;;
52033;SDS011;38045;52.988;6.536;2022-12-15T14:03:29;10.52;;;6.85;;
52033;SDS011;38045;52.988;6.536;2022-12-15T14:05:58;14.00;;;9.00;;
52033;SDS011;38045;52.988;6.536;2022-12-15T14:08:25;10.35;;;8.23;;
52033;SDS011;38045;52.988;6.536;2022-12-15T14:10:58;14.63;;;7.88;;
52033;SDS011;38045;52.988;6.536;2022-12-15T14:16:01;5.88;;;4.85;;
52033;SDS011;38045;52.988;6.536;2022-12-15T14:18:38;9.05;;;5.25;;
52033;SDS011;38045;52.988;6.536;2022-12-15T14:21:06;11.50;;;6.85;;
52033;SDS011;38045;52.988;6.536;2022-12-15T14:26:24;12.45;;;8.52;;
52033;SDS011;38045;52.988;6.536;2022-12-15T14:29:03;12.73;;;7.97;;
52033;SDS011;38045;52.988;6.536;2022-12-15T14:31:30;7.13;;;5.40;;
52033;SDS011;38045;52.988;6.536;2022-12-15T14:34:04;15.63;;;7.45;;
52033;SDS011;38045;52.988;6.536;2022-12-15T14:36:32;13.00;;;8.07;;
52033;SDS011;38045;52.988;6.536;2022-12-15T14:39:00;16.58;;;9.15;;
52033;SDS011;38045;52.988;6.536;2022-12-15T14:41:34;14.48;;;9.88;;
52033;SDS011;38045;52.988;6.536;2022-12-15T14:44:03;16.80;;;6.07;;
52033;SDS011;38045;52.988;6.536;2022-12-15T14:46:44;11.07;;;6.82;;
52033;SDS011;38045;52.988;6.536;2022-12-15T14:49:17;13.73;;;8.80;;
52033;SDS011;38045;52.988;6.536;2022-12-15T14:51:45;11.98;;;8.80;;
52033;SDS011;38045;52.988;6.536;2022-12-15T14:54:31;12.27;;;7.97;;
52033;SDS011;38045;52.988;6.536;2022-12-15T14:59:33;18.70;;;7.93;;
52033;SDS011;38045;52.988;6.536;2022-12-15T15:02:09;13.63;;;10.00;;
52033;SDS011;38045;52.988;6.536;2022-12-15T15:04:38;11.77;;;9.68;;
52033;SDS011;38045;52.988;6.536;2022-12-15T15:07:05;12.45;;;9.85;;
52033;SDS011;38045;52.988;6.536;2022-12-15T15:09:38;13.35;;;8.48;;
52033;SDS011;38045;52.988;6.536;2022-12-15T15:14:32;14.75;;;8.32;;
52033;SDS011;38045;52.988;6.536;2022-12-15T15:19:48;17.63;;;9.73;;
52033;SDS011;38045;52.988;6.536;2022-12-15T15:22:40;17.20;;;10.10;;
52033;SDS011;38045;52.988;6.536;2022-12-15T15:28:39;14.10;;;11.45;;
52033;SDS011;38045;52.988;6.536;2022-12-15T15:33:24;14.75;;;12.40;;
52033;SDS011;38045;52.988;6.536;2022-12-15T15:35:51;13.80;;;9.43;;
52033;SDS011;38045;52.988;6.536;2022-12-15T15:40:51;19.10;;;10.93;;
52033;SDS011;38045;52.988;6.536;2022-12-15T15:43:19;17.17;;;12.47;;
52033;SDS011;38045;52.988;6.536;2022-12-15T15:45:45;18.23;;;12.30;;
52033;SDS011;38045;52.988;6.536;2022-12-15T15:48:34;17.10;;;11.35;;
52033;SDS011;38045;52.988;6.536;2022-12-15T15:51:00;14.40;;;10.80;;
52033;SDS011;38045;52.988;6.536;2022-12-15T15:53:28;17.83;;;14.43;;
52033;SDS011;38045;52.988;6.536;2022-12-15T15:55:56;21.17;;;11.27;;
52033;SDS011;38045;52.988;6.536;2022-12-15T15:58:22;17.50;;;14.00;;
52033;SDS011;38045;52.988;6.536;2022-12-15T16:00:48;15.90;;;11.15;;
52033;SDS011;38045;52.988;6.536;2022-12-15T16:03:14;27.85;;;17.13;;
52033;SDS011;38045;52.988;6.536;2022-12-15T16:05:40;12.57;;;8.05;;
52033;SDS011;38045;52.988;6.536;2022-12-15T16:08:07;16.38;;;13.70;;
52033;SDS011;38045;52.988;6.536;2022-12-15T16:10:39;27.85;;;15.70;;
52033;SDS011;38045;52.988;6.536;2022-12-15T16:13:08;21.33;;;14.77;;
52033;SDS011;38045;52.988;6.536;2022-12-15T16:15:35;22.02;;;17.83;;
52033;SDS011;38045;52.988;6.536;2022-12-15T16:18:01;20.38;;;14.75;;
52033;SDS011;38045;52.988;6.536;2022-12-15T16:20:28;18.17;;;12.05;;
52033;SDS011;38045;52.988;6.536;2022-12-15T16:23:10;17.02;;;13.52;;
52033;SDS011;38045;52.988;6.536;2022-12-15T16:25:40;20.50;;;14.00;;
52033;SDS011;38045;52.988;6.536;2022-12-15T16:28:14;15.23;;;9.13;;
52033;SDS011;38045;52.988;6.536;2022-12-15T16:30:43;24.90;;;14.85;;
52033;SDS011;38045;52.988;6.536;2022-12-15T16:33:09;14.10;;;11.68;;
52033;SDS011;38045;52.988;6.536;2022-12-15T16:35:36;20.77;;;12.45;;
52033;SDS011;38045;52.988;6.536;2022-12-15T16:38:02;30.20;;;22.40;;
52033;SDS011;38045;52.988;6.536;2022-12-15T16:40:29;21.20;;;16.88;;
52033;SDS011;38045;52.988;6.536;2022-12-15T16:42:57;23.63;;;14.93;;
52033;SDS011;38045;52.988;6.536;2022-12-15T16:47:52;18.55;;;15.77;;
52033;SDS011;38045;52.988;6.536;2022-12-15T16:50:19;22.48;;;13.77;;
52033;SDS011;38045;52.988;6.536;2022-12-15T16:52:49;27.67;;;19.30;;
52033;SDS011;38045;52.988;6.536;2022-12-15T16:55:24;21.77;;;18.20;;
52033;SDS011;38045;52.988;6.536;2022-12-15T16:57:56;27.75;;;18.58;;
52033;SDS011;38045;52.988;6.536;2022-12-15T17:00:25;27.50;;;16.00;;
52033;SDS011;38045;52.988;6.536;2022-12-15T17:02:53;39.78;;;20.50;;
52033;SDS011;38045;52.988;6.536;2022-12-15T17:05:19;26.83;;;19.48;;
52033;SDS011;38045;52.988;6.536;2022-12-15T17:07:48;28.90;;;19.33;;
52033;SDS011;38045;52.988;6.536;2022-12-15T17:10:19;22.73;;;18.25;;
52033;SDS011;38045;52.988;6.536;2022-12-15T17:15:17;27.58;;;21.35;;
52033;SDS011;38045;52.988;6.536;2022-12-15T17:17:50;25.67;;;17.15;;
52033;SDS011;38045;52.988;6.536;2022-12-15T17:20:22;25.50;;;18.08;;
52033;SDS011;38045;52.988;6.536;2022-12-15T17:22:52;29.98;;;21.30;;
52033;SDS011;38045;52.988;6.536;2022-12-15T17:25:22;33.45;;;22.48;;